Terminal Aerodrome Forecast
Issued by NWS

Home | Current Version | Previous Version | Text Only | Print | Product List | Glossary On
Versions: 1 2 3 4 5 6 7 8 9 10 11 12 13 14 15 16 17 18 19 20 21 22 23 24 25
656
FTUS43 KEAX 181517 AAC
TAFMKC
TAF AMD
KMKC 181517Z 1815/1912 19008KT 5SM BR BKN002
      TEMPO 1815/1818 1SM BR OVC002
     FM181800 19008KT P6SM FEW035
     FM190600 15003KT 5SM BR OVC020=

USA.gov is the U.S. government's official web portal to all federal, state and local government web resources and services.